createdAt,value
2022-12-05T00:01:44.271Z,101828.88
2022-12-05T00:04:13.018Z,101828.31
2022-12-05T00:06:40.640Z,101835.06
2022-12-05T00:09:08.901Z,101827.91
2022-12-05T00:11:39.910Z,101827.22
2022-12-05T00:14:10.657Z,101816.84
2022-12-05T00:16:38.904Z,101831.50
2022-12-05T00:19:07.280Z,101828.69
2022-12-05T00:21:35.856Z,101830.25
2022-12-05T00:24:04.940Z,101822.97
2022-12-05T00:26:32.057Z,101824.22
2022-12-05T00:28:58.990Z,101827.41
2022-12-05T00:31:26.156Z,101809.44
2022-12-05T00:33:53.956Z,101815.72
2022-12-05T00:36:26.394Z,101814.78
2022-12-05T00:38:54.008Z,101806.84
2022-12-05T00:41:23.202Z,101808.66
2022-12-05T00:43:49.874Z,101811.34
2022-12-05T00:46:22.214Z,101813.06
2022-12-05T00:48:49.220Z,101811.97
2022-12-05T00:51:18.815Z,101811.97
2022-12-05T00:53:46.695Z,101812.28
2022-12-05T00:56:16.313Z,101818.25
2022-12-05T00:58:43.186Z,101810.47
2022-12-05T01:01:23.036Z,101806.00
2022-12-05T01:03:53.071Z,101803.41
2022-12-05T01:06:20.019Z,101804.56
2022-12-05T01:08:46.521Z,101803.72
2022-12-05T01:11:16.123Z,101811.50
2022-12-05T01:13:43.990Z,101807.56
2022-12-05T01:16:23.913Z,101805.06
2022-12-05T01:18:51.284Z,101816.69
2022-12-05T01:21:18.719Z,101811.28
2022-12-05T01:23:45.192Z,101810.72
2022-12-05T01:26:13.779Z,101811.19
2022-12-05T01:28:41.580Z,101812.66
2022-12-05T01:31:17.898Z,101812.75
2022-12-05T01:33:44.586Z,101807.13
2022-12-05T01:36:13.907Z,101813.88
2022-12-05T01:38:41.467Z,101809.13
2022-12-05T01:41:12.682Z,101804.44
2022-12-05T01:43:55.785Z,101811.34
2022-12-05T01:46:22.495Z,101802.56
2022-12-05T01:48:49.909Z,101803.31
2022-12-05T01:51:16.400Z,101809.38
2022-12-05T01:53:42.977Z,101812.22
2022-12-05T01:56:09.745Z,101809.94
2022-12-05T01:58:38.213Z,101819.34
2022-12-05T02:01:05.009Z,101816.03
2022-12-05T02:03:31.597Z,101811.25
2022-12-05T02:05:59.508Z,101809.34
2022-12-05T02:08:28.758Z,101826.44
2022-12-05T02:10:57.375Z,101808.25
2022-12-05T02:13:48.979Z,101813.75
2022-12-05T02:16:34.277Z,101810.00
2022-12-05T02:19:28.388Z,101801.97
2022-12-05T02:22:15.320Z,101807.09
2022-12-05T02:24:57.050Z,101797.09
2022-12-05T02:27:35.562Z,101794.72
2022-12-05T02:30:06.213Z,101804.97
2022-12-05T02:32:42.655Z,101798.41
2022-12-05T02:35:37.258Z,101811.66
2022-12-05T02:38:15.627Z,101807.72
2022-12-05T02:41:02.736Z,101803.47
2022-12-05T02:43:47.563Z,101798.97
2022-12-05T02:46:19.059Z,101789.44
2022-12-05T02:48:46.830Z,101791.31
2022-12-05T02:51:15.011Z,101791.94
2022-12-05T02:53:43.659Z,101778.94
2022-12-05T02:56:10.479Z,101796.50
2022-12-05T02:58:42.265Z,101791.09
2022-12-05T03:01:09.084Z,101778.94
2022-12-05T03:03:35.862Z,101776.09
2022-12-05T03:06:19.970Z,101777.13
2022-12-05T03:08:52.491Z,101768.03
2022-12-05T03:11:19.100Z,101768.28
2022-12-05T03:13:49.750Z,101768.13
2022-12-05T03:16:26.184Z,101766.56
2022-12-05T03:18:59.152Z,101763.97
2022-12-05T03:21:34.465Z,101758.00
2022-12-05T03:24:06.802Z,101757.53
2022-12-05T03:26:48.854Z,101761.28
2022-12-05T03:29:24.326Z,101766.06
2022-12-05T03:32:21.298Z,101755.16
2022-12-05T03:35:09.390Z,101756.34
2022-12-05T03:37:48.378Z,101758.25
2022-12-05T03:40:38.570Z,101756.75
2022-12-05T03:43:19.525Z,101754.16
2022-12-05T03:46:14.139Z,101762.84
2022-12-05T03:48:57.421Z,101755.66
2022-12-05T03:51:30.170Z,101748.56
2022-12-05T03:54:01.030Z,101748.50
2022-12-05T03:56:35.387Z,101748.97
2022-12-05T03:59:14.224Z,101752.66
2022-12-05T04:01:42.780Z,101745.13
2022-12-05T04:04:14.637Z,101741.69
2022-12-05T04:06:41.386Z,101745.22
2022-12-05T04:09:16.869Z,101747.00
2022-12-05T04:11:53.147Z,101744.66
2022-12-05T04:14:26.789Z,101737.22
2022-12-05T04:17:03.269Z,101745.75
2022-12-05T04:19:58.637Z,101742.22
2022-12-05T04:22:26.118Z,101751.22
2022-12-05T04:25:13.364Z,101746.19
2022-12-05T04:27:46.822Z,101745.44
2022-12-05T04:30:22.646Z,101732.41
2022-12-05T04:32:48.958Z,101736.88
2022-12-05T04:35:31.081Z,101736.97
2022-12-05T04:38:04.094Z,101739.69
2022-12-05T04:40:44.518Z,101729.00
2022-12-05T04:43:12.025Z,101743.28
2022-12-05T04:45:39.714Z,101737.19
2022-12-05T04:48:10.550Z,101734.84
2022-12-05T04:50:38.226Z,101739.94
2022-12-05T04:53:05.581Z,101734.19
2022-12-05T04:55:34.003Z,101735.78
2022-12-05T04:58:11.953Z,101733.25
2022-12-05T05:00:46.791Z,101738.84
2022-12-05T05:03:26.300Z,101738.06
2022-12-05T05:05:54.813Z,101743.34
2022-12-05T05:08:28.858Z,101731.34
2022-12-05T05:11:31.676Z,101735.94
2022-12-05T05:13:58.115Z,101736.81
2022-12-05T05:16:29.848Z,101736.13
2022-12-05T05:18:56.668Z,101730.94
2022-12-05T05:21:42.728Z,101732.72
2022-12-05T05:24:10.561Z,101737.38
2022-12-05T05:26:39.750Z,101733.44
2022-12-05T05:29:06.344Z,101735.31
2022-12-05T05:31:33.193Z,101734.47
2022-12-05T05:34:03.240Z,101723.88
2022-12-05T05:36:34.072Z,101726.47
2022-12-05T05:39:01.597Z,101722.06
2022-12-05T05:41:32.845Z,101727.16
2022-12-05T05:44:02.201Z,101732.94
2022-12-05T05:46:31.828Z,101732.94
2022-12-05T05:48:58.720Z,101728.66
2022-12-05T05:51:28.085Z,101723.22
2022-12-05T05:53:54.748Z,101724.72
2022-12-05T05:56:22.304Z,101730.44
2022-12-05T05:58:54.777Z,101731.56
2022-12-05T06:01:21.244Z,101732.56
2022-12-05T06:03:47.834Z,101735.72
2022-12-05T06:06:15.091Z,101740.09
2022-12-05T06:08:42.835Z,101728.56
2022-12-05T06:11:12.004Z,101732.50
2022-12-05T06:13:39.090Z,101735.53
2022-12-05T06:16:07.619Z,101733.25
2022-12-05T06:18:34.349Z,101739.31
2022-12-05T06:21:01.239Z,101739.31
2022-12-05T06:23:27.927Z,101747.78
2022-12-05T06:25:56.196Z,101738.69
2022-12-05T06:28:24.191Z,101743.59
2022-12-05T06:30:50.973Z,101740.34
2022-12-05T06:33:17.951Z,101731.25
2022-12-05T06:35:44.449Z,101739.22
2022-12-05T06:38:12.464Z,101735.72
2022-12-05T06:40:44.482Z,101739.63
2022-12-05T06:43:11.515Z,101736.50
2022-12-05T06:45:38.879Z,101737.81
2022-12-05T06:48:06.179Z,101739.34
2022-12-05T06:50:32.962Z,101748.34
2022-12-05T06:52:59.479Z,101743.34
2022-12-05T06:55:25.953Z,101750.53
2022-12-05T06:57:52.370Z,101751.00
2022-12-05T07:00:37.492Z,101749.47
2022-12-05T07:03:03.955Z,101758.03
2022-12-05T07:05:30.358Z,101760.75
2022-12-05T07:07:56.896Z,101740.28
2022-12-05T07:10:23.327Z,101756.13
2022-12-05T07:12:49.753Z,101748.22
2022-12-05T07:15:16.194Z,101755.28
2022-12-05T07:17:42.662Z,101749.44
2022-12-05T07:20:10.686Z,101760.00
2022-12-05T07:22:37.429Z,101759.53
2022-12-05T07:25:04.525Z,101754.22
2022-12-05T07:27:30.963Z,101755.69
2022-12-05T07:29:57.897Z,101754.13
2022-12-05T07:32:24.493Z,101744.19
2022-12-05T07:34:55.023Z,101741.75
2022-12-05T07:37:22.066Z,101739.16
2022-12-05T07:39:48.538Z,101739.84
2022-12-05T07:42:14.979Z,101740.38
2022-12-05T07:44:41.445Z,101733.53
2022-12-05T07:47:07.903Z,101738.28
2022-12-05T07:49:34.347Z,101737.34
2022-12-05T07:52:00.893Z,101736.88
2022-12-05T07:54:27.326Z,101733.03
2022-12-05T07:56:53.763Z,101738.91
2022-12-05T07:59:20.365Z,101740.56
2022-12-05T08:01:46.814Z,101742.50
2022-12-05T08:04:15.536Z,101732.16
2022-12-05T08:06:42.421Z,101728.16
2022-12-05T08:09:08.873Z,101740.75
2022-12-05T08:11:36.113Z,101727.16
2022-12-05T08:14:05.168Z,101736.72
2022-12-05T08:16:32.307Z,101736.56
2022-12-05T08:19:02.174Z,101734.16
2022-12-05T08:21:29.927Z,101738.09
2022-12-05T08:23:56.622Z,101734.06
2022-12-05T08:26:28.026Z,101728.66
2022-12-05T08:28:57.542Z,101728.03
2022-12-05T08:31:25.623Z,101735.44
2022-12-05T08:33:55.612Z,101739.75
2022-12-05T08:36:25.548Z,101750.41
2022-12-05T08:38:56.485Z,101755.03
2022-12-05T08:41:23.034Z,101750.28
2022-12-05T08:43:49.831Z,101745.25
2022-12-05T08:46:16.321Z,101750.31
2022-12-05T08:48:42.845Z,101747.16
2022-12-05T08:51:10.961Z,101744.72
2022-12-05T08:53:43.881Z,101744.22
2022-12-05T08:56:11.356Z,101740.38
2022-12-05T08:58:38.351Z,101726.41
2022-12-05T09:01:12.974Z,101734.50
2022-12-05T09:03:46.054Z,101735.84
2022-12-05T09:06:21.729Z,101733.03
2022-12-05T09:08:49.258Z,101727.13
2022-12-05T09:11:18.838Z,101736.22
2022-12-05T09:13:46.158Z,101728.03
2022-12-05T09:16:15.015Z,101729.63
2022-12-05T09:18:41.883Z,101720.84
2022-12-05T09:21:16.859Z,101717.25
2022-12-05T09:23:43.374Z,101724.09
2022-12-05T09:26:12.680Z,101714.91
2022-12-05T09:28:39.823Z,101721.09
2022-12-05T09:31:08.667Z,101712.63
2022-12-05T09:33:36.555Z,101710.44
2022-12-05T09:36:07.055Z,101709.53
2022-12-05T09:38:33.539Z,101702.16
2022-12-05T09:41:12.084Z,101695.06
2022-12-05T09:43:47.341Z,101687.00
2022-12-05T09:47:04.482Z,101693.72
2022-12-05T09:49:32.043Z,101674.44
2022-12-05T09:52:00.450Z,101687.91
2022-12-05T09:54:27.481Z,101670.31
2022-12-05T09:56:54.152Z,101676.81
2022-12-05T09:59:20.927Z,101675.94
2022-12-05T10:01:58.445Z,101669.81
2022-12-05T10:04:46.967Z,101677.50
2022-12-05T10:07:35.824Z,101667.84
2022-12-05T10:10:24.524Z,101670.94
2022-12-05T10:13:07.181Z,101657.47
2022-12-05T10:15:45.727Z,101663.41
2022-12-05T10:18:45.979Z,101658.53
2022-12-05T10:21:18.030Z,101653.28
2022-12-05T10:23:58.340Z,101640.44
2022-12-05T10:26:29.345Z,101646.88
2022-12-05T10:29:24.235Z,101646.63
2022-12-05T10:31:53.782Z,101652.03
2022-12-05T10:34:40.155Z,101649.38
2022-12-05T10:37:14.347Z,101648.41
2022-12-05T10:39:40.882Z,101637.06
2022-12-05T10:42:13.371Z,101633.78
2022-12-05T10:44:40.027Z,101634.56
2022-12-05T10:47:06.929Z,101643.81
2022-12-05T10:49:34.454Z,101633.00
2022-12-05T10:52:00.925Z,101639.09
2022-12-05T10:54:30.518Z,101640.44
2022-12-05T10:56:57.190Z,101631.56
2022-12-05T10:59:26.149Z,101634.72
2022-12-05T11:01:55.080Z,101631.25
2022-12-05T11:04:30.935Z,101624.06
2022-12-05T11:07:02.777Z,101622.00
2022-12-05T11:09:32.518Z,101622.00
2022-12-05T11:12:06.828Z,101613.88
2022-12-05T11:14:34.516Z,101620.91
2022-12-05T11:17:01.729Z,101609.84
2022-12-05T11:19:36.646Z,101607.03
2022-12-05T11:22:03.741Z,101602.44
2022-12-05T11:24:35.262Z,101597.91
2022-12-05T11:27:16.740Z,101599.38
2022-12-05T11:29:45.337Z,101600.16
2022-12-05T11:32:24.365Z,101596.09
2022-12-05T11:34:54.412Z,101606.81
2022-12-05T11:37:25.515Z,101604.47
2022-12-05T11:39:52.005Z,101600.84
2022-12-05T11:42:32.948Z,101594.13
2022-12-05T11:45:08.657Z,101610.66
2022-12-05T11:47:55.538Z,101595.94
2022-12-05T11:50:37.136Z,101590.91
2022-12-05T11:53:29.067Z,101586.53
2022-12-05T11:56:31.214Z,101591.16
2022-12-05T11:59:29.891Z,101588.31
2022-12-05T12:02:27.274Z,101586.75
2022-12-05T12:05:21.344Z,101582.47
2022-12-05T12:08:16.069Z,101574.53
2022-12-05T12:11:02.705Z,101574.75
2022-12-05T12:13:41.177Z,101567.81
2022-12-05T12:16:18.009Z,101567.19
2022-12-05T12:19:04.350Z,101562.78
2022-12-05T12:22:03.144Z,101553.16
2022-12-05T12:24:47.950Z,101557.88
2022-12-05T12:27:31.369Z,101542.41
2022-12-05T12:30:09.413Z,101541.63
2022-12-05T12:33:05.877Z,101538.50
2022-12-05T12:35:47.884Z,101535.34
2022-12-05T12:38:32.910Z,101528.41
2022-12-05T12:41:27.529Z,101525.25
2022-12-05T12:44:32.317Z,101515.78
2022-12-05T12:47:39.864Z,101511.63
2022-12-05T12:50:27.290Z,101522.09
2022-12-05T12:52:59.849Z,101518.56
2022-12-05T12:55:41.159Z,101516.16
2022-12-05T12:58:40.356Z,101512.47
2022-12-05T13:01:15.852Z,101517.19
2022-12-05T13:03:52.346Z,101517.22
2022-12-05T13:06:35.919Z,101522.97
2022-12-05T13:09:07.847Z,101505.25
2022-12-05T13:11:38.243Z,101501.47
2022-12-05T13:14:11.545Z,101502.50
2022-12-05T13:16:45.836Z,101501.25
2022-12-05T13:19:41.915Z,101502.34
2022-12-05T13:22:09.108Z,101503.94
2022-12-05T13:24:36.005Z,101504.78
2022-12-05T13:27:05.961Z,101502.72
2022-12-05T13:29:42.174Z,101498.59
2022-12-05T13:32:27.183Z,101499.38
2022-12-05T13:34:54.724Z,101500.56
2022-12-05T13:37:49.638Z,101491.69
2022-12-05T13:40:46.388Z,101505.88
2022-12-05T13:43:16.165Z,101492.72
2022-12-05T13:45:55.431Z,101501.34
2022-12-05T13:48:24.404Z,101498.78
2022-12-05T13:50:59.604Z,101482.69
2022-12-05T13:53:37.527Z,101488.16
2022-12-05T13:56:12.782Z,101487.41
2022-12-05T13:58:43.828Z,101493.25
2022-12-05T14:01:30.860Z,101493.25
2022-12-05T14:03:59.074Z,101480.09
2022-12-05T14:06:40.333Z,101476.91
2022-12-05T14:09:19.093Z,101477.75
2022-12-05T14:12:10.277Z,101476.69
2022-12-05T14:15:04.071Z,101464.06
2022-12-05T14:17:32.724Z,101465.91
2022-12-05T14:20:19.878Z,101467.47
2022-12-05T14:23:09.487Z,101462.00
2022-12-05T14:25:57.918Z,101456.91
2022-12-05T14:28:52.975Z,101459.56
2022-12-05T14:31:34.271Z,101462.56
2022-12-05T14:34:17.172Z,101452.75
2022-12-05T14:37:03.644Z,101452.44
2022-12-05T14:39:42.731Z,101447.09
2022-12-05T14:42:35.432Z,101443.50
2022-12-05T14:45:17.602Z,101439.41
2022-12-05T14:47:50.653Z,101432.31
2022-12-05T14:50:38.594Z,101427.19
2022-12-05T14:53:32.398Z,101421.19
2022-12-05T14:56:01.871Z,101427.38
2022-12-05T14:58:44.893Z,101423.06
2022-12-05T15:01:17.463Z,101425.41
2022-12-05T15:04:06.852Z,101428.88
2022-12-05T15:06:35.629Z,101434.06
2022-12-05T15:09:35.609Z,101433.75
2022-12-05T15:11:53.667Z,101440.44
2022-12-05T15:14:22.695Z,101430.81
2022-12-05T15:16:53.555Z,101428.00
2022-12-05T15:19:29.994Z,101428.53
2022-12-05T15:22:01.694Z,101422.31
2022-12-05T15:24:28.162Z,101423.47
2022-12-05T15:26:55.294Z,101431.28
2022-12-05T15:29:28.167Z,101434.13
2022-12-05T15:32:06.604Z,101430.69
2022-12-05T15:34:40.279Z,101425.63
2022-12-05T15:37:12.293Z,101416.34
2022-12-05T15:39:58.812Z,101426.22
2022-12-05T15:42:41.667Z,101421.88
2022-12-05T15:45:16.494Z,101414.78
2022-12-05T15:47:48.280Z,101421.00
2022-12-05T15:50:16.362Z,101422.25
2022-12-05T15:52:56.999Z,101419.19
2022-12-05T15:55:27.940Z,101420.75
2022-12-05T15:58:09.667Z,101425.75
2022-12-05T16:00:46.464Z,101419.31
2022-12-05T16:03:18.748Z,101409.91
2022-12-05T16:05:55.862Z,101415.16
2022-12-05T16:08:24.501Z,101409.22
2022-12-05T16:10:51.758Z,101416.63
2022-12-05T16:13:22.604Z,101410.41
2022-12-05T16:15:52.888Z,101408.38
2022-12-05T16:18:32.270Z,101405.78
2022-12-05T16:20:59.153Z,101397.19
2022-12-05T16:23:30.878Z,101396.16
2022-12-05T16:26:12.540Z,101387.13
2022-12-05T16:28:39.099Z,101395.44
2022-12-05T16:31:05.881Z,101392.09
2022-12-05T16:33:32.757Z,101386.41
2022-12-05T16:36:12.546Z,101386.91
2022-12-05T16:38:41.014Z,101377.81
2022-12-05T16:41:10.180Z,101385.59
2022-12-05T16:43:36.532Z,101380.13
2022-12-05T16:46:13.167Z,101388.22
2022-12-05T16:48:44.520Z,101381.97
2022-12-05T16:51:14.095Z,101379.63
2022-12-05T16:53:43.010Z,101382.50
2022-12-05T16:56:20.675Z,101381.47
2022-12-05T16:58:47.269Z,101374.50
2022-12-05T17:01:19.209Z,101374.22
2022-12-05T17:03:45.883Z,101372.59
2022-12-05T17:06:13.115Z,101380.88
2022-12-05T17:08:39.540Z,101376.50
2022-12-05T17:11:06.689Z,101378.06
2022-12-05T17:13:33.156Z,101372.66
2022-12-05T17:15:59.652Z,101365.91
2022-12-05T17:18:31.506Z,101362.38
2022-12-05T17:21:00.269Z,101363.06
2022-12-05T17:23:26.742Z,101364.44
2022-12-05T17:25:55.135Z,101364.22
2022-12-05T17:28:22.411Z,101361.34
2022-12-05T17:30:49.246Z,101361.28
2022-12-05T17:33:17.519Z,101354.53
2022-12-05T17:35:44.204Z,101347.75
2022-12-05T17:38:11.221Z,101346.72
2022-12-05T17:40:41.034Z,101338.47
2022-12-05T17:43:11.306Z,101342.13
2022-12-05T17:45:37.712Z,101338.47
2022-12-05T17:48:04.321Z,101340.28
2022-12-05T17:50:30.735Z,101338.22
2022-12-05T17:53:02.776Z,101344.56
2022-12-05T17:55:32.465Z,101341.63
2022-12-05T17:58:01.906Z,101339.03
2022-12-05T18:00:32.271Z,101338.47
2022-12-05T18:02:58.814Z,101332.59
2022-12-05T18:05:28.433Z,101324.31
2022-12-05T18:07:54.939Z,101326.69
2022-12-05T18:10:23.417Z,101328.81
2022-12-05T18:12:50.647Z,101332.69
2022-12-05T18:15:17.603Z,101333.41
2022-12-05T18:17:47.264Z,101337.03
2022-12-05T18:20:15.336Z,101326.31
2022-12-05T18:22:42.053Z,101327.53
2022-12-05T18:25:09.293Z,101321.63
2022-12-05T18:27:38.045Z,101329.16
2022-12-05T18:30:05.666Z,101324.78
2022-12-05T18:32:32.703Z,101330.72
2022-12-05T18:34:59.391Z,101325.53
2022-12-05T18:37:36.824Z,101335.94
2022-12-05T18:40:08.968Z,101334.63
2022-12-05T18:42:35.931Z,101335.88
2022-12-05T18:45:02.474Z,101332.28
2022-12-05T18:47:29.041Z,101322.19
2022-12-05T18:49:55.468Z,101318.34
2022-12-05T18:52:21.881Z,101322.66
2022-12-05T18:55:03.084Z,101325.25
2022-12-05T18:57:34.792Z,101316.78
2022-12-05T19:00:01.996Z,101319.38
2022-12-05T19:02:29.241Z,101314.22
2022-12-05T19:04:55.840Z,101311.09
2022-12-05T19:07:22.534Z,101316.63
2022-12-05T19:09:49.105Z,101315.31
2022-12-05T19:12:15.581Z,101309.94
2022-12-05T19:14:42.034Z,101299.84
2022-12-05T19:17:09.277Z,101303.47
2022-12-05T19:19:35.786Z,101297.78
2022-12-05T19:22:02.277Z,101290.53
2022-12-05T19:24:28.732Z,101290.22
2022-12-05T19:26:55.237Z,101288.47
2022-12-05T19:29:21.771Z,101284.59
2022-12-05T19:31:48.277Z,101289.28
2022-12-05T19:34:14.739Z,101286.22
2022-12-05T19:36:43.635Z,101273.72
2022-12-05T19:39:14.667Z,101283.34
2022-12-05T19:41:41.301Z,101280.75
2022-12-05T19:44:08.111Z,101280.53
2022-12-05T19:46:35.100Z,101282.31
2022-12-05T19:49:04.986Z,101288.75
2022-12-05T19:51:32.305Z,101286.97
2022-12-05T19:54:00.472Z,101279.91
2022-12-05T19:56:28.823Z,101277.59
2022-12-05T19:58:56.553Z,101276.28
2022-12-05T20:01:27.520Z,101275.47
2022-12-05T20:03:56.738Z,101272.84
2022-12-05T20:06:23.898Z,101273.28
2022-12-05T20:08:52.382Z,101278.22
2022-12-05T20:11:21.870Z,101276.75
2022-12-05T20:13:55.189Z,101278.41
2022-12-05T20:16:25.633Z,101278.22
2022-12-05T20:18:52.105Z,101276.97
2022-12-05T20:21:24.644Z,101284.44
2022-12-05T20:24:03.568Z,101267.91
2022-12-05T20:26:35.626Z,101271.81
2022-12-05T20:29:02.442Z,101269.03
2022-12-05T20:31:35.109Z,101271.91
2022-12-05T20:34:02.561Z,101265.44
2022-12-05T20:36:31.108Z,101269.59
2022-12-05T20:39:01.280Z,101272.22
2022-12-05T20:41:28.356Z,101261.63
2022-12-05T20:43:57.113Z,101261.88
2022-12-05T20:46:24.180Z,101263.94
2022-12-05T20:48:51.402Z,101255.78
2022-12-05T20:51:23.344Z,101256.06
2022-12-05T20:53:50.058Z,101249.34
2022-12-05T20:56:18.158Z,101244.06
2022-12-05T20:58:46.593Z,101245.22
2022-12-05T21:01:13.714Z,101241.06
2022-12-05T21:03:43.871Z,101239.75
2022-12-05T21:06:13.884Z,101234.34
2022-12-05T21:08:42.263Z,101230.16
2022-12-05T21:11:09.651Z,101233.88
2022-12-05T21:13:36.348Z,101233.34
2022-12-05T21:16:08.697Z,101235.19
2022-12-05T21:18:35.443Z,101231.56
2022-12-05T21:21:04.504Z,101223.03
2022-12-05T21:23:30.979Z,101222.81
2022-12-05T21:26:04.804Z,101224.63
2022-12-05T21:28:32.231Z,101217.88
2022-12-05T21:31:26.116Z,101223.25
2022-12-05T21:33:56.903Z,101213.13
2022-12-05T21:36:24.574Z,101216.16
2022-12-05T21:38:55.943Z,101212.75
2022-12-05T21:41:25.675Z,101211.97
2022-12-05T21:43:54.971Z,101206.06
2022-12-05T21:46:22.784Z,101203.50
2022-12-05T21:48:49.259Z,101197.06
2022-12-05T21:51:15.917Z,101187.00
2022-12-05T21:53:42.478Z,101197.34
2022-12-05T21:56:11.756Z,101200.97
2022-12-05T21:58:42.429Z,101200.22
2022-12-05T22:01:17.203Z,101195.06
2022-12-05T22:03:43.869Z,101189.88
2022-12-05T22:06:13.252Z,101186.00
2022-12-05T22:08:39.708Z,101193.78
2022-12-05T22:11:20.583Z,101185.22
2022-12-05T22:13:49.146Z,101176.13
2022-12-05T22:16:16.214Z,101176.66
2022-12-05T22:18:42.735Z,101176.88
2022-12-05T22:21:14.788Z,101161.88
2022-12-05T22:23:41.384Z,101158.44
2022-12-05T22:26:13.260Z,101155.31
2022-12-05T22:28:40.174Z,101155.31
2022-12-05T22:31:13.603Z,101141.09
2022-12-05T22:33:40.496Z,101150.19
2022-12-05T22:36:08.804Z,101143.78
2022-12-05T22:38:37.505Z,101147.91
2022-12-05T22:41:06.306Z,101145.59
2022-12-05T22:43:34.267Z,101142.13
2022-12-05T22:46:05.252Z,101136.94
2022-12-05T22:48:32.021Z,101128.16
2022-12-05T22:50:58.600Z,101121.91
2022-12-05T22:53:25.109Z,101126.59
2022-12-05T22:55:52.274Z,101124.53
2022-12-05T22:58:19.205Z,101122.69
2022-12-05T23:00:46.354Z,101114.22
2022-12-05T23:03:13.263Z,101116.84
2022-12-05T23:05:43.904Z,101122.50
2022-12-05T23:08:11.372Z,101112.41
2022-12-05T23:10:39.202Z,101105.19
2022-12-05T23:13:07.198Z,101115.84
2022-12-05T23:15:34.184Z,101108.59
2022-12-05T23:18:00.593Z,101102.63
2022-12-05T23:20:29.009Z,101099.22
2022-12-05T23:22:55.449Z,101092.50
2022-12-05T23:25:21.869Z,101083.72
2022-12-05T23:27:48.519Z,101095.91
2022-12-05T23:30:15.423Z,101091.50
2022-12-05T23:32:41.825Z,101084.50
2022-12-05T23:35:10.933Z,101085.25
2022-12-05T23:37:37.496Z,101077.75
2022-12-05T23:40:05.705Z,101085.03
2022-12-05T23:42:32.133Z,101085.03
2022-12-05T23:44:58.579Z,101076.72
2022-12-05T23:47:26.394Z,101080.06
2022-12-05T23:49:52.813Z,101079.59
2022-12-05T23:52:19.274Z,101071.56
2022-12-05T23:54:45.771Z,101070.53
2022-12-05T23:57:17.244Z,101066.94
2022-12-05T23:59:44.152Z,101057.34
